createdAt,value
2018-11-06T00:00:18.143Z,10.40
2018-11-06T00:02:48.116Z,10.40
2018-11-06T00:05:18.690Z,10.40
2018-11-06T00:07:48.020Z,10.30
2018-11-06T00:10:17.429Z,10.40
2018-11-06T00:12:46.769Z,10.40
2018-11-06T00:15:16.035Z,10.40
2018-11-06T00:17:45.304Z,10.40
2018-11-06T00:20:15.388Z,10.40
2018-11-06T00:22:44.679Z,10.40
2018-11-06T00:25:14.420Z,10.30
2018-11-06T00:27:43.681Z,10.40
2018-11-06T00:30:14.263Z,10.30
2018-11-06T00:32:44.056Z,10.30
2018-11-06T00:35:14.511Z,10.30
2018-11-06T00:37:44.851Z,10.30
2018-11-06T00:40:14.292Z,10.30
2018-11-06T00:42:43.579Z,10.30
2018-11-06T00:45:15.892Z,10.30
2018-11-06T00:47:45.150Z,10.30
2018-11-06T00:50:14.914Z,10.30
2018-11-06T00:52:45.063Z,10.20
2018-11-06T00:55:14.680Z,10.20
2018-11-06T00:57:44.746Z,10.20
2018-11-06T01:00:15.771Z,10.20
2018-11-06T01:02:45.171Z,10.20
2018-11-06T01:05:15.249Z,10.10
2018-11-06T01:07:46.885Z,10.10
2018-11-06T01:10:16.352Z,10.10
2018-11-06T01:12:45.666Z,10.10
2018-11-06T01:15:15.989Z,10.10
2018-11-06T01:17:45.998Z,10.10
2018-11-06T01:20:17.174Z,10.10
2018-11-06T01:22:46.493Z,10.10
2018-11-06T01:25:15.964Z,10.10
2018-11-06T01:27:45.295Z,10.10
2018-11-06T01:30:17.122Z,10.00
2018-11-06T01:32:46.711Z,10.00
2018-11-06T01:35:16.412Z,10.00
2018-11-06T01:37:46.666Z,10.00
2018-11-06T01:40:17.127Z,10.00
2018-11-06T01:42:46.945Z,10.00
2018-11-06T01:45:17.250Z,10.00
2018-11-06T01:47:46.507Z,10.00
2018-11-06T01:50:16.949Z,10.00
2018-11-06T01:52:47.101Z,10.00
2018-11-06T01:55:16.996Z,10.00
2018-11-06T01:57:46.350Z,10.00
2018-11-06T02:00:17.656Z,9.90
2018-11-06T02:02:47.075Z,9.90
2018-11-06T02:05:17.471Z,10.00
2018-11-06T02:07:47.969Z,10.00
2018-11-06T02:10:17.796Z,10.00
2018-11-06T02:12:47.609Z,10.00
2018-11-06T02:15:16.944Z,10.00
2018-11-06T02:17:46.509Z,9.90
2018-11-06T02:20:16.435Z,9.90
2018-11-06T02:22:46.242Z,9.90
2018-11-06T02:25:16.068Z,9.80
2018-11-06T02:27:45.338Z,9.80
2018-11-06T02:30:16.095Z,9.80
2018-11-06T02:32:46.109Z,9.80
2018-11-06T02:35:15.442Z,9.80
2018-11-06T02:37:44.720Z,9.80
2018-11-06T02:40:15.045Z,9.70
2018-11-06T02:42:44.359Z,9.70
2018-11-06T02:45:14.152Z,9.60
2018-11-06T02:47:43.981Z,9.60
2018-11-06T02:50:14.807Z,9.60
2018-11-06T02:52:44.731Z,9.60
2018-11-06T02:55:14.249Z,9.50
2018-11-06T02:57:43.881Z,9.50
2018-11-06T03:00:15.081Z,9.50
2018-11-06T03:02:45.232Z,9.40
2018-11-06T03:05:14.513Z,9.40
2018-11-06T03:07:43.936Z,9.30
2018-11-06T03:10:14.089Z,9.30
2018-11-06T03:12:44.019Z,9.30
2018-11-06T03:15:14.386Z,9.30
2018-11-06T03:17:43.780Z,9.30
2018-11-06T03:20:13.675Z,9.30
2018-11-06T03:22:43.616Z,9.30
2018-11-06T03:25:13.161Z,9.30
2018-11-06T03:27:42.907Z,9.20
2018-11-06T03:30:14.803Z,9.30
2018-11-06T03:32:44.311Z,9.20
2018-11-06T03:35:14.502Z,9.20
2018-11-06T03:37:43.827Z,9.20
2018-11-06T03:40:13.725Z,9.20
2018-11-06T03:42:43.520Z,9.20
2018-11-06T03:45:13.755Z,9.10
2018-11-06T03:47:43.077Z,9.00
2018-11-06T03:50:13.202Z,9.00
2018-11-06T03:52:42.815Z,9.00
2018-11-06T03:55:12.074Z,9.00
2018-11-06T03:57:41.333Z,9.00
2018-11-06T04:00:13.349Z,9.00
2018-11-06T04:02:43.187Z,9.00
2018-11-06T04:05:12.756Z,8.90
2018-11-06T04:07:42.072Z,8.90
2018-11-06T04:10:12.108Z,8.90
2018-11-06T04:12:42.523Z,8.90
2018-11-06T04:15:13.133Z,8.90
2018-11-06T04:17:43.484Z,8.80
2018-11-06T04:20:12.752Z,8.90
2018-11-06T04:22:42.532Z,8.80
2018-11-06T04:25:11.847Z,8.80
2018-11-06T04:27:41.348Z,8.80
2018-11-06T04:30:12.427Z,8.80
2018-11-06T04:32:42.545Z,8.80
2018-11-06T04:35:12.571Z,8.80
2018-11-06T04:37:42.434Z,8.70
2018-11-06T04:40:14.679Z,8.70
2018-11-06T04:42:44.149Z,8.70
2018-11-06T04:45:13.991Z,8.70
2018-11-06T04:47:43.365Z,8.70
2018-11-06T04:50:13.172Z,8.70
2018-11-06T04:52:42.646Z,8.60
2018-11-06T04:55:12.908Z,8.60
2018-11-06T04:57:42.740Z,8.60
2018-11-06T05:00:13.255Z,8.60
2018-11-06T05:02:43.089Z,8.60
2018-11-06T05:05:12.888Z,8.60
2018-11-06T05:07:42.188Z,8.50
2018-11-06T05:10:12.735Z,8.50
2018-11-06T05:12:41.963Z,8.50
2018-11-06T05:15:12.853Z,8.50
2018-11-06T05:17:42.171Z,8.50
2018-11-06T05:20:15.005Z,8.50
2018-11-06T05:22:45.302Z,8.50
2018-11-06T05:25:15.020Z,8.40
2018-11-06T05:27:44.677Z,8.40
2018-11-06T05:30:13.983Z,8.40
2018-11-06T05:32:44.196Z,8.40
2018-11-06T05:35:13.484Z,8.40
2018-11-06T05:37:42.827Z,8.40
2018-11-06T05:40:23.290Z,8.40
2018-11-06T05:42:52.536Z,8.30
2018-11-06T05:45:21.793Z,8.30
2018-11-06T05:47:51.776Z,8.30
2018-11-06T05:50:21.068Z,8.20
2018-11-06T05:52:50.349Z,8.30
2018-11-06T05:55:19.626Z,8.20
2018-11-06T05:57:48.879Z,8.20
2018-11-06T06:00:18.136Z,8.20
2018-11-06T06:02:47.371Z,8.20
2018-11-06T06:05:16.824Z,8.20
2018-11-06T06:07:46.126Z,8.20
2018-11-06T06:10:15.444Z,8.10
2018-11-06T06:12:44.718Z,8.10
2018-11-06T06:15:13.993Z,8.00
2018-11-06T06:17:43.275Z,8.00
2018-11-06T06:20:12.677Z,8.00
2018-11-06T06:22:41.958Z,8.00
2018-11-06T06:25:11.160Z,7.90
2018-11-06T06:27:40.419Z,7.90
2018-11-06T06:30:12.340Z,7.80
2018-11-06T06:32:41.716Z,7.80
2018-11-06T06:35:11.277Z,7.70
2018-11-06T06:37:40.573Z,7.70
2018-11-06T06:40:12.219Z,7.60
2018-11-06T06:42:41.719Z,7.60
2018-11-06T06:45:12.769Z,7.60
2018-11-06T06:47:42.044Z,7.60
2018-11-06T06:50:14.146Z,7.50
2018-11-06T06:52:43.834Z,7.50
2018-11-06T06:55:14.069Z,7.50
2018-11-06T06:57:44.316Z,7.50
2018-11-06T07:00:22.461Z,7.50
2018-11-06T07:02:51.677Z,7.40
2018-11-06T07:05:22.435Z,7.50
2018-11-06T07:07:51.700Z,7.40
2018-11-06T07:10:22.266Z,7.50
2018-11-06T07:12:51.833Z,7.50
2018-11-06T07:15:22.183Z,7.60
2018-11-06T07:17:52.130Z,7.60
2018-11-06T07:20:23.960Z,7.60
2018-11-06T07:22:53.285Z,7.70
2018-11-06T07:25:22.819Z,7.80
2018-11-06T07:27:52.043Z,7.90
2018-11-06T07:30:22.509Z,7.90
2018-11-06T07:32:51.791Z,7.90
2018-11-06T07:35:21.247Z,7.90
2018-11-06T07:37:50.514Z,7.90
2018-11-06T07:40:20.659Z,8.00
2018-11-06T07:42:49.975Z,8.00
2018-11-06T07:45:20.715Z,8.00
2018-11-06T07:47:49.966Z,8.10
2018-11-06T07:50:19.302Z,8.10
2018-11-06T07:52:49.040Z,8.20
2018-11-06T07:55:19.176Z,8.20
2018-11-06T07:57:48.475Z,8.30
2018-11-06T08:00:22.561Z,8.30
2018-11-06T08:02:51.959Z,8.30
2018-11-06T08:05:21.407Z,8.30
2018-11-06T08:07:51.347Z,8.40
2018-11-06T08:10:20.735Z,8.40
2018-11-06T08:12:52.440Z,8.40
2018-11-06T08:15:21.809Z,8.50
2018-11-06T08:17:51.151Z,8.50
2018-11-06T08:20:20.395Z,8.50
2018-11-06T08:22:49.648Z,8.60
2018-11-06T08:25:18.939Z,8.60
2018-11-06T08:27:48.283Z,8.60
2018-11-06T08:30:17.539Z,8.70
2018-11-06T08:32:47.529Z,8.70
2018-11-06T08:35:17.671Z,8.80
2018-11-06T08:37:46.991Z,8.80
2018-11-06T08:40:17.363Z,8.90
2018-11-06T08:42:46.663Z,8.90
2018-11-06T08:45:16.508Z,9.00
2018-11-06T08:47:46.283Z,9.00
2018-11-06T08:50:23.084Z,9.00
2018-11-06T08:52:52.404Z,9.10
2018-11-06T08:55:21.687Z,9.10
2018-11-06T08:57:50.963Z,9.20
2018-11-06T09:00:20.376Z,9.20
2018-11-06T09:02:50.093Z,9.20
2018-11-06T09:05:19.973Z,9.30
2018-11-06T09:07:49.192Z,9.30
2018-11-06T09:10:18.424Z,9.40
2018-11-06T09:12:47.726Z,9.40
2018-11-06T09:15:17.848Z,9.50
2018-11-06T09:17:47.103Z,9.60
2018-11-06T09:20:17.164Z,9.70
2018-11-06T09:22:46.452Z,9.80
2018-11-06T09:25:17.192Z,9.90
2018-11-06T09:27:46.471Z,10.10
2018-11-06T09:30:17.127Z,10.20
2018-11-06T09:32:46.427Z,10.20
2018-11-06T09:35:15.993Z,10.40
2018-11-06T09:37:45.737Z,10.50
2018-11-06T09:40:16.539Z,10.70
2018-11-06T09:42:45.908Z,10.80
2018-11-06T09:45:15.354Z,10.90
2018-11-06T09:47:44.630Z,11.00
2018-11-06T09:50:15.425Z,11.00
2018-11-06T09:52:45.524Z,11.10
2018-11-06T09:55:15.307Z,11.10
2018-11-06T09:57:44.705Z,11.20
2018-11-06T10:00:16.134Z,11.20
2018-11-06T10:02:45.790Z,11.30
2018-11-06T10:05:15.277Z,11.30
2018-11-06T10:07:44.695Z,11.40
2018-11-06T10:10:15.721Z,11.40
2018-11-06T10:12:45.583Z,11.50
2018-11-06T10:15:19.304Z,11.50
2018-11-06T10:17:49.497Z,11.60
2018-11-06T10:20:19.714Z,11.70
2018-11-06T10:22:49.032Z,11.90
2018-11-06T10:25:18.374Z,12.00
2018-11-06T10:27:47.662Z,12.10
2018-11-06T10:30:18.136Z,12.20
2018-11-06T10:32:47.413Z,12.40
2018-11-06T10:35:16.677Z,12.40
2018-11-06T10:37:46.036Z,12.50
2018-11-06T10:40:17.884Z,12.60
2018-11-06T10:42:47.704Z,12.70
2018-11-06T10:45:17.636Z,12.70
2018-11-06T10:47:47.327Z,12.80
2018-11-06T10:50:17.240Z,12.90
2018-11-06T10:52:47.258Z,13.00
2018-11-06T10:55:16.504Z,13.20
2018-11-06T10:57:45.841Z,13.30
2018-11-06T11:00:20.403Z,13.40
2018-11-06T11:02:54.994Z,13.60
2018-11-06T11:05:26.286Z,13.60
2018-11-06T11:07:55.580Z,13.70
2018-11-06T11:10:24.877Z,13.70
2018-11-06T11:12:54.164Z,13.70
2018-11-06T11:15:23.435Z,13.70
2018-11-06T11:17:52.870Z,13.70
2018-11-06T11:20:22.239Z,13.80
2018-11-06T11:22:51.455Z,13.90
2018-11-06T11:25:20.705Z,14.00
2018-11-06T11:27:50.632Z,14.00
2018-11-06T11:30:19.899Z,14.10
2018-11-06T11:32:49.259Z,14.20
2018-11-06T11:35:18.542Z,14.30
2018-11-06T11:37:47.998Z,14.40
2018-11-06T11:40:17.582Z,14.50
2018-11-06T11:42:46.876Z,14.70
2018-11-06T11:45:16.500Z,14.90
2018-11-06T11:47:45.849Z,15.10
2018-11-06T11:50:15.929Z,15.20
2018-11-06T11:52:45.258Z,15.30
2018-11-06T11:55:14.507Z,15.40
2018-11-06T11:57:43.764Z,15.60
2018-11-06T12:00:15.484Z,15.70
2018-11-06T12:02:44.794Z,15.70
2018-11-06T12:05:14.324Z,15.70
2018-11-06T12:07:43.632Z,15.70
2018-11-06T12:10:13.748Z,15.60
2018-11-06T12:12:43.000Z,15.70
2018-11-06T12:15:15.113Z,15.70
2018-11-06T12:17:45.393Z,15.90
2018-11-06T12:20:15.307Z,16.10
2018-11-06T12:22:44.603Z,16.20
2018-11-06T12:25:14.531Z,16.20
2018-11-06T12:27:43.698Z,16.20
2018-11-06T12:30:15.327Z,16.50
2018-11-06T12:32:44.881Z,16.40
2018-11-06T12:35:14.601Z,16.40
2018-11-06T12:37:44.348Z,16.50
2018-11-06T12:40:14.252Z,16.70
2018-11-06T12:42:43.632Z,16.80
2018-11-06T12:45:15.099Z,17.00
2018-11-06T12:47:45.009Z,16.90
2018-11-06T12:50:14.326Z,16.80
2018-11-06T12:52:43.631Z,17.00
2018-11-06T12:55:14.155Z,17.00
2018-11-06T12:57:44.008Z,16.90
2018-11-06T13:00:17.977Z,16.90
2018-11-06T13:02:47.261Z,16.90
2018-11-06T13:05:16.528Z,16.90
2018-11-06T13:07:47.009Z,16.70
2018-11-06T13:10:16.490Z,16.60
2018-11-06T13:12:45.739Z,16.50
2018-11-06T13:15:15.715Z,16.60
2018-11-06T13:17:44.340Z,16.60
2018-11-06T13:20:15.069Z,16.50
2018-11-06T13:22:45.027Z,16.50
2018-11-06T13:25:14.335Z,16.70
2018-11-06T13:27:43.860Z,16.70
2018-11-06T13:30:16.522Z,16.80
2018-11-06T13:32:46.851Z,16.90
2018-11-06T13:35:16.343Z,17.20
2018-11-06T13:37:45.618Z,17.20
2018-11-06T13:40:16.099Z,17.40
2018-11-06T13:42:46.146Z,17.50
2018-11-06T13:45:19.108Z,17.60
2018-11-06T13:47:48.218Z,17.80
2018-11-06T13:50:17.665Z,17.30
2018-11-06T13:52:46.964Z,16.90
2018-11-06T13:55:16.873Z,16.50
2018-11-06T13:57:46.754Z,16.50
2018-11-06T14:00:19.827Z,16.30
2018-11-06T14:02:49.176Z,16.20
2018-11-06T14:05:19.651Z,16.20
2018-11-06T14:07:48.901Z,16.10
2018-11-06T14:10:18.270Z,16.00
2018-11-06T14:12:47.520Z,15.90
2018-11-06T14:15:16.906Z,15.90
2018-11-06T14:17:46.227Z,15.90
2018-11-06T14:20:16.690Z,16.00
2018-11-06T14:22:46.285Z,16.00
2018-11-06T14:25:16.171Z,16.00
2018-11-06T14:27:45.756Z,16.00
2018-11-06T14:30:17.395Z,16.00
2018-11-06T14:32:47.061Z,15.90
2018-11-06T14:35:17.518Z,16.00
2018-11-06T14:37:47.211Z,16.40
2018-11-06T14:40:17.290Z,16.80
2018-11-06T14:42:47.028Z,16.50
2018-11-06T14:45:17.628Z,16.60
2018-11-06T14:47:46.974Z,17.50
2018-11-06T14:50:16.198Z,17.90
2018-11-06T14:52:45.601Z,17.40
2018-11-06T14:55:15.698Z,17.00
2018-11-06T14:57:45.019Z,16.70
2018-11-06T15:00:15.973Z,16.20
2018-11-06T15:02:47.619Z,15.60
2018-11-06T15:05:17.717Z,15.20
2018-11-06T15:07:47.085Z,14.90
2018-11-06T15:10:16.517Z,14.80
2018-11-06T15:12:46.313Z,14.60
2018-11-06T15:15:16.128Z,14.60
2018-11-06T15:17:46.351Z,14.40
2018-11-06T15:20:18.573Z,14.30
2018-11-06T15:22:47.990Z,14.20
2018-11-06T15:25:18.102Z,14.10
2018-11-06T15:27:47.385Z,14.00
2018-11-06T15:30:17.780Z,13.70
2018-11-06T15:32:47.172Z,13.60
2018-11-06T15:35:17.944Z,13.40
2018-11-06T15:37:47.231Z,13.30
2018-11-06T15:40:17.958Z,13.20
2018-11-06T15:42:47.645Z,13.10
2018-11-06T15:45:17.985Z,13.00
2018-11-06T15:47:48.571Z,12.90
2018-11-06T15:50:19.049Z,12.80
2018-11-06T15:52:49.292Z,12.80
2018-11-06T15:55:18.620Z,12.80
2018-11-06T15:57:48.436Z,12.70
2018-11-06T16:00:19.983Z,12.60
2018-11-06T16:02:49.441Z,12.60
2018-11-06T16:05:18.873Z,12.50
2018-11-06T16:07:48.810Z,12.40
2018-11-06T16:10:19.560Z,12.30
2018-11-06T16:12:48.888Z,12.10
2018-11-06T16:15:18.371Z,12.00
2018-11-06T16:17:48.025Z,11.90
2018-11-06T16:20:18.747Z,11.90
2018-11-06T16:22:49.197Z,11.80
2018-11-06T16:25:19.328Z,11.80
2018-11-06T16:27:48.802Z,11.90
2018-11-06T16:30:20.169Z,11.90
2018-11-06T16:32:49.563Z,12.00
2018-11-06T16:35:23.773Z,11.90
2018-11-06T16:37:53.372Z,11.90
2018-11-06T16:40:22.673Z,11.70
2018-11-06T16:42:52.526Z,11.70
2018-11-06T16:45:22.711Z,11.60
2018-11-06T16:47:52.676Z,11.60
2018-11-06T16:50:22.337Z,11.60
2018-11-06T16:52:52.103Z,11.60
2018-11-06T16:55:21.417Z,11.60
2018-11-06T16:57:50.731Z,11.60
2018-11-06T17:00:22.037Z,11.60
2018-11-06T17:02:51.423Z,11.60
2018-11-06T17:05:20.832Z,11.70
2018-11-06T17:07:50.508Z,11.60
2018-11-06T17:10:20.539Z,11.60
2018-11-06T17:12:49.805Z,11.60
2018-11-06T17:15:20.275Z,11.50
2018-11-06T17:17:51.504Z,11.50
2018-11-06T17:20:21.247Z,11.40
2018-11-06T17:22:51.532Z,11.40
2018-11-06T17:25:22.036Z,11.30
2018-11-06T17:27:51.297Z,11.30
2018-11-06T17:30:20.805Z,11.40
2018-11-06T17:32:50.597Z,11.30
2018-11-06T17:35:20.649Z,11.30
2018-11-06T17:37:49.902Z,11.30
2018-11-06T17:40:20.314Z,11.30
2018-11-06T17:42:49.632Z,11.30
2018-11-06T17:45:20.422Z,11.30
2018-11-06T17:47:49.619Z,11.30
2018-11-06T17:50:19.079Z,11.30
2018-11-06T17:52:49.114Z,11.30
2018-11-06T17:55:19.761Z,11.30
2018-11-06T17:57:48.976Z,11.20
2018-11-06T18:00:20.772Z,11.20
2018-11-06T18:02:50.234Z,11.20
2018-11-06T18:05:21.067Z,11.00
2018-11-06T18:07:50.323Z,10.80
2018-11-06T18:10:20.290Z,10.70
2018-11-06T18:12:49.574Z,10.60
2018-11-06T18:15:18.965Z,10.50
2018-11-06T18:17:48.269Z,10.40
2018-11-06T18:20:17.505Z,10.60
2018-11-06T18:22:46.903Z,10.50
2018-11-06T18:25:16.840Z,10.60
2018-11-06T18:27:46.066Z,10.60
2018-11-06T18:30:17.063Z,10.60
2018-11-06T18:32:46.333Z,10.60
2018-11-06T18:35:16.767Z,10.60
2018-11-06T18:37:46.091Z,10.60
2018-11-06T18:40:17.598Z,10.50
2018-11-06T18:42:48.808Z,10.40
2018-11-06T18:45:18.138Z,10.40
2018-11-06T18:47:47.432Z,10.30
2018-11-06T18:50:17.884Z,10.30
2018-11-06T18:52:48.404Z,10.30
2018-11-06T18:55:17.821Z,10.40
2018-11-06T18:57:47.187Z,10.30
2018-11-06T19:00:18.548Z,10.40
2018-11-06T19:02:49.211Z,10.40
2018-11-06T19:05:19.314Z,10.40
2018-11-06T19:07:48.799Z,10.40
2018-11-06T19:10:18.396Z,9.80
2018-11-06T19:12:47.788Z,10.30
2018-11-06T19:15:19.226Z,10.30
2018-11-06T19:17:49.107Z,10.30
2018-11-06T19:20:18.409Z,10.30
2018-11-06T19:22:47.887Z,10.20
2018-11-06T19:25:17.314Z,10.20
2018-11-06T19:27:46.583Z,10.30
2018-11-06T19:30:17.458Z,10.30
2018-11-06T19:32:46.798Z,10.20
2018-11-06T19:35:16.211Z,10.20
2018-11-06T19:37:45.554Z,10.30
2018-11-06T19:40:16.617Z,10.30
2018-11-06T19:42:46.790Z,10.20
2018-11-06T19:45:16.214Z,10.30
2018-11-06T19:47:45.769Z,10.30
2018-11-06T19:50:16.689Z,10.30
2018-11-06T19:52:46.114Z,10.40
2018-11-06T19:55:16.520Z,10.30
2018-11-06T19:57:45.872Z,10.30
2018-11-06T20:00:22.283Z,10.30
2018-11-06T20:02:52.957Z,10.30
2018-11-06T20:05:22.357Z,10.30
2018-11-06T20:07:52.189Z,10.30
2018-11-06T20:10:23.054Z,10.30
2018-11-06T20:12:54.076Z,10.20
2018-11-06T20:15:23.862Z,10.20
2018-11-06T20:17:53.238Z,10.20
2018-11-06T20:20:25.181Z,10.20
2018-11-06T20:22:54.547Z,10.10
2018-11-06T20:25:23.856Z,10.20
2018-11-06T20:27:53.854Z,10.10
2018-11-06T20:30:24.615Z,10.10
2018-11-06T20:32:54.123Z,10.10
2018-11-06T20:35:23.545Z,10.10
2018-11-06T20:37:52.903Z,10.00
2018-11-06T20:40:23.547Z,10.00
2018-11-06T20:42:52.966Z,9.90
2018-11-06T20:45:22.665Z,10.00
2018-11-06T20:47:52.601Z,9.90
2018-11-06T20:50:23.627Z,10.00
2018-11-06T20:52:52.992Z,10.00
2018-11-06T20:55:22.251Z,10.00
2018-11-06T20:57:51.507Z,10.00
2018-11-06T21:00:22.489Z,10.10
2018-11-06T21:02:52.896Z,10.10
2018-11-06T21:05:22.196Z,10.10
2018-11-06T21:07:52.192Z,10.10
2018-11-06T21:10:23.693Z,10.10
2018-11-06T21:12:52.981Z,10.00
2018-11-06T21:15:22.303Z,10.00
2018-11-06T21:17:51.664Z,10.00
2018-11-06T21:20:20.930Z,9.90
2018-11-06T21:22:50.197Z,9.80
2018-11-06T21:25:20.152Z,9.80
2018-11-06T21:27:49.289Z,9.80
2018-11-06T21:30:20.017Z,9.80
2018-11-06T21:32:50.651Z,10.00
2018-11-06T21:35:19.953Z,10.10
2018-11-06T21:37:49.217Z,10.00
2018-11-06T21:40:20.030Z,9.90
2018-11-06T21:42:49.672Z,9.70
2018-11-06T21:45:19.417Z,9.70
2018-11-06T21:47:49.407Z,9.50
2018-11-06T21:50:19.137Z,9.50
2018-11-06T21:52:48.387Z,9.50
2018-11-06T21:55:18.654Z,9.60
2018-11-06T21:57:48.135Z,9.50
2018-11-06T22:00:19.856Z,9.50
2018-11-06T22:02:49.137Z,9.50
2018-11-06T22:05:19.639Z,9.50
2018-11-06T22:07:49.030Z,9.40
2018-11-06T22:10:19.569Z,9.40
2018-11-06T22:12:50.144Z,9.40
2018-11-06T22:15:20.028Z,9.30
2018-11-06T22:17:49.305Z,9.30
2018-11-06T22:20:19.448Z,9.20
2018-11-06T22:22:49.250Z,9.30
2018-11-06T22:25:18.508Z,9.30
2018-11-06T22:27:48.571Z,9.30
2018-11-06T22:30:17.964Z,9.30
2018-11-06T22:32:47.621Z,9.30
2018-11-06T22:35:17.839Z,9.30
2018-11-06T22:37:47.118Z,9.30
2018-11-06T22:40:17.227Z,9.30
2018-11-06T22:42:46.487Z,9.00
2018-11-06T22:45:17.603Z,8.80
2018-11-06T22:47:46.889Z,8.80
2018-11-06T22:50:17.512Z,8.70
2018-11-06T22:52:47.780Z,8.50
2018-11-06T22:55:17.344Z,8.50
2018-11-06T22:57:46.627Z,8.60
2018-11-06T23:00:18.666Z,8.60
2018-11-06T23:02:48.574Z,8.70
2018-11-06T23:05:17.852Z,8.80
2018-11-06T23:08:49.923Z,8.80
2018-11-06T23:11:19.173Z,8.70
2018-11-06T23:13:49.283Z,8.60
2018-11-06T23:16:18.545Z,8.60
2018-11-06T23:18:47.829Z,8.70
2018-11-06T23:21:17.104Z,8.70
2018-11-06T23:23:46.448Z,8.90
2018-11-06T23:26:15.789Z,8.90
2018-11-06T23:28:45.066Z,8.80
2018-11-06T23:31:14.396Z,8.80
2018-11-06T23:33:43.996Z,8.80
2018-11-06T23:36:13.302Z,8.80
2018-11-06T23:38:42.531Z,8.70
2018-11-06T23:41:11.807Z,8.90
2018-11-06T23:43:41.097Z,8.80
2018-11-06T23:46:10.448Z,8.50
2018-11-06T23:48:39.692Z,8.10
2018-11-06T23:51:08.929Z,8.10
2018-11-06T23:53:38.917Z,8.10
2018-11-06T23:56:08.181Z,8.20
2018-11-06T23:58:37.405Z,8.30
